createdAt,value
2022-08-14T00:02:14.762Z,16.70
2022-08-14T00:04:44.931Z,16.40
2022-08-14T00:07:13.984Z,19.92
2022-08-14T00:09:55.900Z,18.02
2022-08-14T00:12:37.633Z,19.30
2022-08-14T00:15:15.446Z,16.58
2022-08-14T00:17:47.914Z,16.02
2022-08-14T00:20:23.987Z,19.00
2022-08-14T00:22:58.887Z,20.77
2022-08-14T00:25:42.392Z,16.05
2022-08-14T00:28:15.375Z,16.23
2022-08-14T00:30:47.366Z,15.20
2022-08-14T00:33:16.072Z,18.13
2022-08-14T00:36:39.502Z,19.05
2022-08-14T00:38:34.644Z,15.18
2022-08-14T00:41:07.189Z,16.45
2022-08-14T00:43:38.207Z,15.82
2022-08-14T00:46:32.915Z,15.00
2022-08-14T00:48:58.450Z,20.13
2022-08-14T00:51:34.462Z,16.35
2022-08-14T00:54:17.089Z,18.73
2022-08-14T00:56:55.765Z,15.63
2022-08-14T00:59:28.816Z,18.10
2022-08-14T01:02:00.854Z,14.95
2022-08-14T01:04:51.880Z,18.02
2022-08-14T01:07:22.747Z,16.55
2022-08-14T01:09:52.683Z,20.35
2022-08-14T01:12:27.280Z,16.02
2022-08-14T01:15:02.846Z,14.48
2022-08-14T01:17:51.782Z,14.23
2022-08-14T01:20:40.649Z,18.63
2022-08-14T01:23:16.571Z,18.52
2022-08-14T01:25:48.868Z,14.50
2022-08-14T01:28:47.211Z,15.70
2022-08-14T01:31:15.380Z,17.88
2022-08-14T01:35:16.097Z,16.13
2022-08-14T01:36:39.130Z,16.38
2022-08-14T01:39:13.577Z,13.88
2022-08-14T01:41:44.096Z,16.52
2022-08-14T01:44:32.620Z,16.88
2022-08-14T01:47:16.586Z,16.98
2022-08-14T01:50:01.735Z,18.02
2022-08-14T01:52:59.112Z,17.05
2022-08-14T01:55:29.318Z,17.23
2022-08-14T01:58:02.287Z,16.80
2022-08-14T02:00:44.523Z,17.50
2022-08-14T02:03:16.615Z,16.67
2022-08-14T02:05:43.695Z,14.73
2022-08-14T02:08:10.818Z,13.98
2022-08-14T02:10:46.952Z,16.42
2022-08-14T02:13:17.282Z,14.68
2022-08-14T02:15:48.364Z,15.35
2022-08-14T02:18:16.360Z,14.43
2022-08-14T02:20:46.089Z,14.30
2022-08-14T02:23:14.586Z,13.80
2022-08-14T02:25:44.280Z,16.10
2022-08-14T02:28:57.892Z,14.20
2022-08-14T02:31:09.569Z,14.55
2022-08-14T02:33:39.265Z,14.80
2022-08-14T02:37:04.689Z,16.13
2022-08-14T02:38:53.661Z,24.20
2022-08-14T02:41:20.695Z,15.77
2022-08-14T02:43:48.568Z,16.10
2022-08-14T02:46:20.689Z,16.05
2022-08-14T02:49:03.722Z,14.88
2022-08-14T02:51:36.553Z,15.68
2022-08-14T02:54:07.305Z,14.98
2022-08-14T02:57:16.180Z,14.80
2022-08-14T02:59:33.668Z,15.82
2022-08-14T03:02:03.241Z,18.13
2022-08-14T03:04:31.165Z,13.30
2022-08-14T03:07:07.617Z,13.00
2022-08-14T03:10:24.753Z,23.02
2022-08-14T03:12:31.229Z,18.45
2022-08-14T03:15:16.327Z,15.55
2022-08-14T03:17:57.614Z,17.48
2022-08-14T03:20:30.437Z,16.83
2022-08-14T03:23:03.189Z,16.27
2022-08-14T03:25:33.532Z,18.52
2022-08-14T03:28:14.546Z,14.85
2022-08-14T03:30:59.841Z,14.90
2022-08-14T03:33:38.007Z,14.88
2022-08-14T03:37:28.872Z,19.15
2022-08-14T03:39:11.565Z,16.73
2022-08-14T03:41:43.413Z,13.77
2022-08-14T03:45:25.361Z,15.40
2022-08-14T03:46:57.439Z,15.10
2022-08-14T03:49:29.639Z,15.63
2022-08-14T03:52:00.693Z,15.05
2022-08-14T03:54:29.348Z,12.07
2022-08-14T03:57:02.505Z,16.55
2022-08-14T03:59:32.336Z,10.05
2022-08-14T04:02:02.166Z,11.65
2022-08-14T04:04:30.897Z,11.65
2022-08-14T04:06:59.711Z,14.68
2022-08-14T04:09:27.624Z,19.80
2022-08-14T04:11:56.193Z,10.75
2022-08-14T04:14:25.151Z,10.05
2022-08-14T04:16:52.158Z,11.65
2022-08-14T04:19:24.624Z,10.82
2022-08-14T04:22:03.591Z,12.10
2022-08-14T04:24:38.644Z,11.02
2022-08-14T04:27:11.888Z,11.57
2022-08-14T04:29:44.928Z,11.20
2022-08-14T04:32:58.175Z,10.45
2022-08-14T04:35:07.509Z,11.45
2022-08-14T04:37:56.577Z,11.05
2022-08-14T04:40:42.133Z,11.65
2022-08-14T04:43:38.367Z,10.82
2022-08-14T04:46:56.761Z,11.60
2022-08-14T04:48:59.806Z,14.07
2022-08-14T04:51:30.161Z,10.82
2022-08-14T04:54:13.563Z,12.02
2022-08-14T04:56:43.659Z,11.60
2022-08-14T04:59:12.411Z,14.40
2022-08-14T05:01:47.978Z,10.20
2022-08-14T05:04:19.880Z,11.93
2022-08-14T05:06:53.487Z,9.55
2022-08-14T05:09:22.003Z,11.45
2022-08-14T05:11:51.552Z,9.82
2022-08-14T05:14:45.465Z,10.30
2022-08-14T05:17:13.162Z,10.07
2022-08-14T05:19:44.748Z,10.80
2022-08-14T05:22:27.403Z,13.45
2022-08-14T05:24:54.437Z,11.20
2022-08-14T05:27:23.194Z,13.18
2022-08-14T05:29:56.873Z,11.43
2022-08-14T05:32:27.187Z,11.02
2022-08-14T05:35:00.209Z,10.73
2022-08-14T05:37:29.913Z,8.82
2022-08-14T05:39:58.554Z,9.85
2022-08-14T05:42:29.342Z,9.07
2022-08-14T05:44:59.898Z,10.50
2022-08-14T05:47:28.569Z,10.23
2022-08-14T05:50:02.021Z,9.02
2022-08-14T05:52:38.643Z,10.27
2022-08-14T05:55:09.226Z,9.70
2022-08-14T05:57:47.667Z,11.90
2022-08-14T06:00:28.250Z,13.30
2022-08-14T06:03:00.615Z,12.30
2022-08-14T06:05:31.807Z,12.70
2022-08-14T06:08:00.105Z,12.40
2022-08-14T06:10:31.370Z,10.65
2022-08-14T06:13:04.021Z,11.63
2022-08-14T06:15:31.665Z,11.40
2022-08-14T06:18:00.549Z,12.85
2022-08-14T06:20:30.176Z,10.30
2022-08-14T06:22:58.283Z,12.82
2022-08-14T06:25:26.956Z,10.63
2022-08-14T06:27:55.177Z,8.73
2022-08-14T06:30:30.381Z,13.23
2022-08-14T06:33:13.189Z,10.98
2022-08-14T06:35:43.581Z,9.27
2022-08-14T06:38:19.571Z,14.75
2022-08-14T06:40:49.937Z,7.50
2022-08-14T06:43:19.779Z,8.55
2022-08-14T06:45:53.731Z,7.85
2022-08-14T06:48:25.496Z,7.38
2022-08-14T06:50:54.248Z,9.88
2022-08-14T06:53:22.310Z,7.35
2022-08-14T06:56:00.663Z,7.13
2022-08-14T06:58:31.357Z,10.38
2022-08-14T07:01:27.128Z,10.15
2022-08-14T07:04:23.691Z,7.47
2022-08-14T07:06:55.844Z,7.43
2022-08-14T07:09:28.275Z,6.63
2022-08-14T07:12:54.809Z,6.32
2022-08-14T07:14:58.841Z,6.63
2022-08-14T07:17:31.931Z,7.45
2022-08-14T07:20:01.259Z,9.63
2022-08-14T07:22:32.751Z,6.45
2022-08-14T07:25:06.125Z,9.38
2022-08-14T07:27:33.492Z,8.43
2022-08-14T07:30:05.386Z,7.95
2022-08-14T07:32:36.155Z,6.85
2022-08-14T07:35:03.176Z,8.10
2022-08-14T07:37:30.428Z,9.73
2022-08-14T07:39:57.458Z,8.23
2022-08-14T07:42:24.509Z,5.68
2022-08-14T07:44:51.921Z,6.47
2022-08-14T07:47:23.190Z,7.50
2022-08-14T07:50:01.668Z,7.63
2022-08-14T07:52:31.918Z,8.65
2022-08-14T07:55:00.813Z,6.97
2022-08-14T07:57:27.931Z,6.38
2022-08-14T07:59:55.042Z,5.63
2022-08-14T08:02:22.840Z,7.60
2022-08-14T08:04:55.203Z,7.78
2022-08-14T08:07:29.445Z,7.18
2022-08-14T08:10:00.760Z,6.65
2022-08-14T08:12:38.590Z,6.80
2022-08-14T08:15:07.737Z,6.97
2022-08-14T08:17:38.315Z,7.50
2022-08-14T08:20:11.430Z,6.82
2022-08-14T08:22:47.954Z,6.47
2022-08-14T08:25:18.356Z,4.95
2022-08-14T08:28:00.649Z,7.50
2022-08-14T08:30:37.838Z,5.30
2022-08-14T08:33:17.867Z,5.40
2022-08-14T08:35:50.496Z,5.45
2022-08-14T08:39:15.620Z,5.22
2022-08-14T08:41:11.575Z,6.05
2022-08-14T08:43:46.207Z,4.95
2022-08-14T08:46:23.573Z,6.03
2022-08-14T08:51:33.312Z,5.35
2022-08-14T08:54:14.989Z,8.40
2022-08-14T08:56:47.534Z,5.38
2022-08-14T08:59:31.627Z,5.30
2022-08-14T09:02:09.289Z,5.07
2022-08-14T09:04:45.501Z,5.90
2022-08-14T09:07:27.080Z,5.95
2022-08-14T09:09:59.120Z,7.32
2022-08-14T09:12:32.451Z,7.82
2022-08-14T09:15:14.027Z,5.53
2022-08-14T09:17:42.720Z,6.40
2022-08-14T09:20:12.201Z,5.72
2022-08-14T09:22:42.712Z,5.55
2022-08-14T09:25:19.537Z,6.22
2022-08-14T09:27:47.265Z,7.00
2022-08-14T09:30:32.936Z,4.93
2022-08-14T09:33:11.068Z,6.90
2022-08-14T09:36:18.597Z,5.40
2022-08-14T09:39:08.113Z,5.20
2022-08-14T09:42:17.324Z,5.72
2022-08-14T09:44:57.239Z,6.22
2022-08-14T09:47:52.117Z,5.70
2022-08-14T09:50:25.648Z,4.60
2022-08-14T09:53:18.212Z,5.32
2022-08-14T09:55:58.628Z,22.58
2022-08-14T09:58:45.490Z,5.78
2022-08-14T10:01:14.778Z,6.30
2022-08-14T10:03:59.628Z,6.65
2022-08-14T10:06:29.594Z,7.93
2022-08-14T10:09:11.875Z,8.00
2022-08-14T10:11:58.693Z,5.68
2022-08-14T10:14:35.302Z,4.63
2022-08-14T10:17:08.668Z,4.95
2022-08-14T10:19:48.493Z,5.40
2022-08-14T10:23:15.453Z,5.97
2022-08-14T10:25:15.311Z,5.25
2022-08-14T10:27:46.721Z,5.78
2022-08-14T10:30:22.823Z,5.45
2022-08-14T10:32:55.602Z,7.47
2022-08-14T10:35:23.409Z,6.55
2022-08-14T10:38:01.292Z,6.13
2022-08-14T10:40:37.884Z,5.22
2022-08-14T10:43:22.980Z,5.53
2022-08-14T10:46:03.627Z,5.43
2022-08-14T10:49:00.312Z,5.90
2022-08-14T10:51:30.134Z,5.63
2022-08-14T10:54:16.817Z,4.45
2022-08-14T10:56:59.442Z,9.48
2022-08-14T10:59:36.174Z,8.48
2022-08-14T11:02:22.293Z,5.72
2022-08-14T11:05:13.245Z,7.45
2022-08-14T11:07:56.471Z,5.95
2022-08-14T11:10:44.254Z,7.13
2022-08-14T11:13:24.135Z,5.50
2022-08-14T11:15:52.808Z,7.97
2022-08-14T11:18:30.332Z,5.38
2022-08-14T11:21:06.602Z,8.23
2022-08-14T11:23:39.841Z,6.15
2022-08-14T11:26:10.445Z,5.95
2022-08-14T11:28:47.974Z,5.93
2022-08-14T11:31:23.787Z,8.60
2022-08-14T11:33:55.538Z,5.63
2022-08-14T11:36:57.081Z,5.68
2022-08-14T11:39:34.749Z,5.65
2022-08-14T11:42:07.627Z,5.57
2022-08-14T11:45:04.878Z,6.07
2022-08-14T11:47:44.122Z,5.72
2022-08-14T11:50:37.318Z,5.47
2022-08-14T11:53:08.816Z,5.75
2022-08-14T11:55:39.834Z,5.10
2022-08-14T11:58:11.617Z,5.03
2022-08-14T12:00:53.965Z,6.05
2022-08-14T12:03:27.204Z,5.53
2022-08-14T12:06:28.129Z,5.10
2022-08-14T12:09:00.260Z,5.43
2022-08-14T12:11:43.477Z,5.15
2022-08-14T12:14:29.104Z,5.93
2022-08-14T12:17:04.296Z,5.78
2022-08-14T12:19:33.629Z,7.18
2022-08-14T12:22:03.300Z,4.95
2022-08-14T12:24:36.600Z,6.40
2022-08-14T12:27:07.240Z,5.30
2022-08-14T12:29:34.893Z,5.63
2022-08-14T12:32:06.710Z,6.20
2022-08-14T12:34:37.539Z,5.38
2022-08-14T12:37:06.307Z,5.70
2022-08-14T12:39:39.705Z,5.82
2022-08-14T12:42:07.966Z,5.30
2022-08-14T12:44:37.446Z,8.88
2022-08-14T12:47:17.048Z,5.82
2022-08-14T12:49:53.044Z,6.47
2022-08-14T12:52:36.259Z,5.22
2022-08-14T12:55:18.741Z,5.82
2022-08-14T12:57:49.340Z,6.15
2022-08-14T13:00:23.972Z,5.22
2022-08-14T13:02:55.948Z,5.20
2022-08-14T13:05:30.266Z,6.88
2022-08-14T13:07:59.348Z,5.60
2022-08-14T13:10:47.854Z,5.57
2022-08-14T13:16:53.485Z,5.43
2022-08-14T13:19:28.440Z,5.57
2022-08-14T13:22:05.601Z,6.88
2022-08-14T13:24:39.623Z,5.72
2022-08-14T13:27:09.760Z,6.13
2022-08-14T13:29:46.912Z,6.80
2022-08-14T13:32:15.234Z,6.47
2022-08-14T13:34:46.058Z,5.70
2022-08-14T13:37:17.871Z,5.30
2022-08-14T13:39:56.208Z,6.43
2022-08-14T13:42:23.603Z,5.07
2022-08-14T13:44:54.006Z,6.13
2022-08-14T13:47:23.682Z,6.75
2022-08-14T13:49:56.843Z,7.47
2022-08-14T13:52:52.683Z,6.38
2022-08-14T13:55:16.096Z,6.07
2022-08-14T13:57:49.857Z,5.50
2022-08-14T14:03:08.627Z,5.18
2022-08-14T14:05:52.797Z,6.18
2022-08-14T14:08:46.878Z,8.52
2022-08-14T14:11:15.689Z,5.43
2022-08-14T14:13:45.694Z,5.65
2022-08-14T14:16:21.782Z,5.95
2022-08-14T14:18:55.459Z,6.25
2022-08-14T14:21:28.640Z,7.88
2022-08-14T14:23:59.677Z,6.22
2022-08-14T14:26:30.415Z,7.53
2022-08-14T14:29:07.648Z,6.82
2022-08-14T14:31:38.887Z,6.40
2022-08-14T14:34:20.020Z,4.90
2022-08-14T14:37:03.096Z,7.30
2022-08-14T14:39:37.760Z,5.30
2022-08-14T14:42:09.370Z,5.95
2022-08-14T14:44:42.512Z,8.50
2022-08-14T14:47:11.860Z,6.90
2022-08-14T14:49:54.873Z,6.25
2022-08-14T14:52:27.787Z,6.22
2022-08-14T14:54:58.685Z,7.63
2022-08-14T14:57:35.122Z,8.93
2022-08-14T15:00:12.712Z,6.20
2022-08-14T15:02:43.780Z,7.45
2022-08-14T15:05:14.366Z,5.97
2022-08-14T15:07:42.594Z,7.35
2022-08-14T15:10:27.880Z,7.65
2022-08-14T15:13:03.559Z,6.72
2022-08-14T15:15:32.724Z,6.43
2022-08-14T15:18:01.199Z,5.68
2022-08-14T15:20:30.461Z,6.05
2022-08-14T15:23:12.075Z,6.47
2022-08-14T15:25:42.063Z,9.77
2022-08-14T15:28:12.874Z,5.50
2022-08-14T15:30:46.278Z,5.80
2022-08-14T15:34:13.167Z,4.95
2022-08-14T15:36:31.397Z,5.78
2022-08-14T15:38:59.604Z,5.88
2022-08-14T15:41:27.085Z,7.20
2022-08-14T15:44:01.688Z,7.00
2022-08-14T15:46:43.264Z,5.22
2022-08-14T15:49:12.955Z,6.15
2022-08-14T15:51:42.368Z,6.80
2022-08-14T15:54:11.304Z,6.68
2022-08-14T15:56:42.728Z,11.32
2022-08-14T15:59:12.968Z,6.82
2022-08-14T16:01:53.397Z,6.63
2022-08-14T16:04:24.053Z,7.18
2022-08-14T16:06:55.537Z,8.07
2022-08-14T16:09:23.475Z,6.38
2022-08-14T16:11:53.956Z,6.70
2022-08-14T16:14:24.142Z,8.10
2022-08-14T16:17:00.656Z,7.95
2022-08-14T16:19:33.159Z,7.72
2022-08-14T16:22:59.267Z,7.05
2022-08-14T16:30:27.683Z,10.98
2022-08-14T16:32:57.988Z,6.88
2022-08-14T16:35:42.547Z,5.93
2022-08-14T16:38:29.435Z,7.82
2022-08-14T16:40:24.352Z,5.65
2022-08-14T16:41:22.833Z,6.25
2022-08-14T16:43:54.244Z,8.37
2022-08-14T16:46:28.153Z,7.22
2022-08-14T16:48:58.753Z,11.38
2022-08-14T16:51:28.333Z,9.80
2022-08-14T16:54:00.560Z,8.02
2022-08-14T16:56:30.929Z,10.02
2022-08-14T16:59:51.764Z,10.50
2022-08-14T17:04:41.059Z,7.95
2022-08-14T17:07:13.970Z,9.85
2022-08-14T17:09:45.014Z,10.77
2022-08-14T17:12:28.497Z,9.18
2022-08-14T17:15:03.849Z,8.98
2022-08-14T17:17:40.544Z,10.57
2022-08-14T17:20:51.505Z,8.43
2022-08-14T17:23:10.863Z,9.13
2022-08-14T17:25:39.076Z,8.98
2022-08-14T17:28:52.463Z,9.32
2022-08-14T17:31:02.869Z,8.90
2022-08-14T17:33:40.630Z,13.02
2022-08-14T17:36:24.242Z,9.90
2022-08-14T17:39:02.713Z,9.05
2022-08-14T17:41:48.114Z,11.23
2022-08-14T17:44:45.079Z,11.55
2022-08-14T17:47:18.150Z,9.05
2022-08-14T17:49:52.194Z,8.82
2022-08-14T17:52:36.268Z,9.75
2022-08-14T17:56:01.377Z,8.50
2022-08-14T17:58:02.050Z,12.35
2022-08-14T18:00:50.645Z,11.25
2022-08-14T18:03:46.774Z,10.52
2022-08-14T18:06:38.634Z,9.95
2022-08-14T18:08:59.189Z,9.85
2022-08-14T18:11:46.230Z,10.30
2022-08-14T18:14:31.643Z,10.02
2022-08-14T18:17:01.596Z,11.40
2022-08-14T18:19:34.513Z,9.13
2022-08-14T18:22:24.008Z,13.32
2022-08-14T18:24:53.240Z,11.68
2022-08-14T18:27:32.695Z,8.90
2022-08-14T18:30:31.236Z,11.75
2022-08-14T18:32:54.965Z,10.10
2022-08-14T18:35:56.735Z,9.13
2022-08-14T18:38:45.969Z,9.73
2022-08-14T18:41:37.392Z,8.32
2022-08-14T18:44:11.187Z,11.35
2022-08-14T18:47:15.209Z,11.30
2022-08-14T18:49:57.881Z,11.55
2022-08-14T18:52:37.334Z,10.15
2022-08-14T18:55:21.473Z,10.80
2022-08-14T18:57:58.053Z,10.15
2022-08-14T19:00:39.960Z,11.70
2022-08-14T19:03:11.821Z,11.35
2022-08-14T19:05:47.678Z,11.00
2022-08-14T19:08:18.635Z,13.90
2022-08-14T19:10:54.740Z,13.10
2022-08-14T19:13:44.674Z,13.52
2022-08-14T19:16:23.316Z,11.88
2022-08-14T19:19:00.159Z,12.13
2022-08-14T19:21:27.914Z,11.15
2022-08-14T19:24:27.245Z,9.45
2022-08-14T19:27:16.649Z,11.35
2022-08-14T19:29:47.915Z,9.38
2022-08-14T19:32:40.202Z,11.25
2022-08-14T19:35:49.135Z,10.65
2022-08-14T19:39:06.345Z,13.47
2022-08-14T19:44:19.362Z,11.18
2022-08-14T19:47:00.098Z,9.57
2022-08-14T19:50:24.990Z,10.73
2022-08-14T19:52:23.915Z,13.35
2022-08-14T19:54:52.416Z,14.40
2022-08-14T19:57:29.185Z,15.75
2022-08-14T20:00:28.246Z,13.20
2022-08-14T20:03:04.464Z,11.55
2022-08-14T20:05:45.449Z,13.98
2022-08-14T20:11:07.028Z,11.52
2022-08-14T20:11:19.240Z,15.95
2022-08-14T20:13:47.563Z,14.48
2022-08-14T20:16:20.983Z,13.30
2022-08-14T20:18:50.103Z,13.13
2022-08-14T20:21:18.732Z,12.25
2022-08-14T20:23:48.236Z,15.35
2022-08-14T20:26:30.542Z,12.52
2022-08-14T20:29:05.250Z,18.13
2022-08-14T20:31:37.063Z,13.38
2022-08-14T20:34:24.605Z,12.68
2022-08-14T20:37:16.410Z,14.18
2022-08-14T20:39:54.697Z,13.35
2022-08-14T20:42:43.701Z,11.45
2022-08-14T20:45:21.645Z,13.23
2022-08-14T20:47:58.575Z,11.05
2022-08-14T20:50:29.768Z,15.43
2022-08-14T20:53:05.808Z,13.02
2022-08-14T20:58:41.853Z,11.60
2022-08-14T21:01:18.968Z,11.52
2022-08-14T21:03:58.233Z,12.48
2022-08-14T21:07:23.012Z,12.00
2022-08-14T21:10:03.201Z,14.35
2022-08-14T21:12:35.245Z,13.52
2022-08-14T21:15:01.084Z,14.98
2022-08-14T21:17:29.688Z,11.63
2022-08-14T21:19:56.961Z,13.30
2022-08-14T21:22:25.578Z,13.77
2022-08-14T21:25:02.240Z,12.65
2022-08-14T21:27:37.329Z,13.15
2022-08-14T21:30:08.472Z,15.98
2022-08-14T21:32:50.649Z,11.60
2022-08-14T21:35:26.127Z,13.63
2022-08-14T21:37:53.950Z,11.32
2022-08-14T21:40:39.952Z,11.90
2022-08-14T21:43:17.449Z,12.52
2022-08-14T21:45:53.205Z,12.00
2022-08-14T21:48:25.042Z,14.32
2022-08-14T21:51:01.204Z,13.82
2022-08-14T21:53:34.256Z,11.70
2022-08-14T21:56:03.243Z,13.70
2022-08-14T21:58:52.761Z,13.40
2022-08-14T22:01:19.454Z,13.20
2022-08-14T22:03:55.120Z,12.45
2022-08-14T22:06:28.903Z,16.42
2022-08-14T22:08:58.318Z,12.20
2022-08-14T22:11:27.299Z,12.52
2022-08-14T22:14:02.108Z,15.18
2022-08-14T22:17:02.107Z,16.00
2022-08-14T22:19:47.602Z,13.10
2022-08-14T22:22:26.037Z,13.65
2022-08-14T22:25:00.179Z,13.82
2022-08-14T22:27:32.259Z,12.23
2022-08-14T22:30:02.336Z,17.90
2022-08-14T22:32:55.924Z,14.63
2022-08-14T22:35:23.439Z,12.52
2022-08-14T22:38:34.899Z,17.75
2022-08-14T22:40:57.611Z,15.68
2022-08-14T22:43:28.182Z,11.20
2022-08-14T22:46:02.169Z,16.58
2022-08-14T22:48:30.171Z,13.93
2022-08-14T22:50:57.303Z,12.30
2022-08-14T22:53:29.535Z,16.55
2022-08-14T22:55:58.877Z,13.18
2022-08-14T22:58:31.342Z,14.70
2022-08-14T23:01:01.362Z,14.52
2022-08-14T23:03:31.306Z,13.10
2022-08-14T23:06:02.318Z,13.88
2022-08-14T23:08:56.303Z,15.88
2022-08-14T23:11:16.753Z,18.48
2022-08-14T23:13:46.091Z,13.23
2022-08-14T23:16:20.064Z,16.63
2022-08-14T23:18:53.460Z,16.58
2022-08-14T23:21:24.586Z,15.32
2022-08-14T23:23:55.045Z,12.50
2022-08-14T23:26:49.921Z,13.60
2022-08-14T23:29:12.942Z,14.65
2022-08-14T23:31:45.156Z,15.68
2022-08-14T23:34:20.583Z,14.05
2022-08-14T23:36:54.844Z,13.68
2022-08-14T23:39:32.911Z,13.30
2022-08-14T23:42:05.082Z,12.70
2022-08-14T23:44:35.711Z,14.27
2022-08-14T23:47:11.011Z,17.13
2022-08-14T23:50:00.430Z,15.05
2022-08-14T23:52:50.604Z,16.83
2022-08-14T23:55:25.365Z,16.55
2022-08-14T23:57:58.243Z,12.65
